aviador You're here:

LDRI Decoded Metar

RIJEKA in CROATIA
Report Time2018-06-18 15:00:00
UTC Time2018-06-18 15:30:12
Flight Rules vfr VFR
WindVRB at 05 kt
Visibility9999 m
Phenomena:N/A
Clouds:Scattered 060 Hf
Expected CloudBase > 6,000 ft AGL from Temp-Dew spread
CeilingNone
Temp28°C (ISA +14)
Dew Point13°C (40% RH)
Heat Index27.7°C
AAT27.2°C
QNH1015 hPa
Density Alt1,975 ft
Elevation279 ft
Report Wrong Elevation
Raw Report
LDRI 181500Z VRB05KT 9999 SCT060 28/13 Q1015=

Extra information for LDRI:More info

Metar Taf Metar & Taf Last 4 Metars F.Rules Stats Wind Profile Meteogram Temp Stats Airport Information Weather charts Add Link Nearby VenuesMetar ALERT Operation Metar Decoded Social comments